You are listening to:
KTUS Del/Gnd/Twr/App/KDMA - Tucson, Arizona, United States

KTUS 060953Z 17003KT 10SM CLR 26/11 A2999 RMK AO2 SLP103 T02560106

If stream doesn't start automatically press the play button
If stream stops then reload player then press play